createdAt,value
2018-03-31T00:00:05.422Z,7.00
2018-03-31T00:01:08.617Z,6.90
2018-03-31T00:02:06.328Z,6.90
2018-03-31T00:03:05.878Z,7.00
2018-03-31T00:04:10.582Z,6.90
2018-03-31T00:05:06.100Z,6.90
2018-03-31T00:06:10.888Z,6.90
2018-03-31T00:07:12.927Z,6.90
2018-03-31T00:08:05.289Z,6.90
2018-03-31T00:09:12.913Z,7.10
2018-03-31T00:10:05.443Z,6.90
2018-03-31T00:11:06.032Z,6.90
2018-03-31T00:12:10.785Z,6.90
2018-03-31T00:13:06.111Z,6.90
2018-03-31T00:14:06.825Z,6.90
2018-03-31T00:15:10.456Z,6.80
2018-03-31T00:16:10.390Z,6.80
2018-03-31T00:17:05.843Z,6.90
2018-03-31T00:18:07.924Z,6.90
2018-03-31T00:19:05.323Z,6.90
2018-03-31T00:20:05.150Z,6.90
2018-03-31T00:21:06.142Z,6.90
2018-03-31T00:22:08.253Z,6.90
2018-03-31T00:23:08.244Z,6.80
2018-03-31T00:24:05.725Z,6.80
2018-03-31T00:25:05.260Z,6.90
2018-03-31T00:26:05.388Z,6.80
2018-03-31T00:27:08.599Z,6.80
2018-03-31T00:28:06.074Z,6.90
2018-03-31T00:29:05.700Z,6.80
2018-03-31T00:30:05.369Z,6.90
2018-03-31T00:31:05.223Z,6.90
2018-03-31T00:32:12.857Z,6.90
2018-03-31T00:33:05.473Z,6.90
2018-03-31T00:34:07.912Z,6.90
2018-03-31T00:35:10.372Z,6.90
2018-03-31T00:36:05.843Z,6.90
2018-03-31T00:37:10.585Z,6.90
2018-03-31T00:38:08.598Z,6.90
2018-03-31T00:39:10.905Z,6.90
2018-03-31T00:40:05.470Z,6.90
2018-03-31T00:41:05.465Z,6.90
2018-03-31T00:42:05.978Z,6.90
2018-03-31T00:43:05.414Z,6.90
2018-03-31T00:44:05.205Z,6.90
2018-03-31T00:45:05.912Z,6.90
2018-03-31T00:46:08.182Z,6.80
2018-03-31T00:47:07.857Z,6.90
2018-03-31T00:48:05.353Z,6.80
2018-03-31T00:49:05.274Z,6.80
2018-03-31T00:50:10.619Z,6.90
2018-03-31T00:51:05.280Z,6.80
2018-03-31T00:52:06.040Z,6.80
2018-03-31T00:53:05.963Z,6.80
2018-03-31T00:54:05.491Z,6.80
2018-03-31T00:55:06.285Z,6.80
2018-03-31T00:56:05.895Z,6.80
2018-03-31T00:57:05.659Z,6.80
2018-03-31T00:58:05.314Z,6.80
2018-03-31T00:59:08.618Z,6.80
2018-03-31T01:00:06.126Z,6.80
2018-03-31T01:01:07.890Z,6.70
2018-03-31T01:02:06.240Z,6.80
2018-03-31T01:03:05.844Z,6.80
2018-03-31T01:04:10.647Z,6.80
2018-03-31T01:05:05.084Z,6.80
2018-03-31T01:06:05.110Z,6.70
2018-03-31T01:07:12.830Z,6.80
2018-03-31T01:08:05.397Z,6.70
2018-03-31T01:09:08.588Z,6.70
2018-03-31T01:10:08.624Z,6.80
2018-03-31T01:11:05.173Z,6.70
2018-03-31T01:12:08.471Z,6.80
2018-03-31T01:13:10.983Z,6.70
2018-03-31T01:14:10.586Z,6.80
2018-03-31T01:15:08.580Z,6.80
2018-03-31T01:16:06.103Z,6.80
2018-03-31T01:17:05.805Z,6.80
2018-03-31T01:18:05.537Z,6.70
2018-03-31T01:19:10.379Z,6.70
2018-03-31T01:20:05.883Z,6.70
2018-03-31T01:21:05.400Z,6.70
2018-03-31T01:22:10.347Z,6.70
2018-03-31T01:23:10.508Z,6.70
2018-03-31T01:24:08.596Z,6.70
2018-03-31T01:25:06.175Z,6.70
2018-03-31T01:26:06.057Z,6.70
2018-03-31T01:27:05.708Z,6.70
2018-03-31T01:28:10.253Z,6.70
2018-03-31T01:29:09.339Z,6.60
2018-03-31T01:30:05.675Z,6.60
2018-03-31T01:31:10.374Z,6.70
2018-03-31T01:32:05.888Z,6.70
2018-03-31T01:33:13.748Z,6.60
2018-03-31T01:34:05.328Z,6.60
2018-03-31T01:35:10.290Z,6.60
2018-03-31T01:36:08.318Z,6.60
2018-03-31T01:37:05.861Z,6.60
2018-03-31T01:38:05.662Z,6.60
2018-03-31T01:39:10.455Z,6.70
2018-03-31T01:40:10.999Z,6.60
2018-03-31T01:41:05.446Z,6.60
2018-03-31T01:42:05.452Z,6.60
2018-03-31T01:43:06.055Z,6.70
2018-03-31T01:44:10.786Z,6.70
2018-03-31T01:45:05.216Z,6.70
2018-03-31T01:46:05.405Z,6.70
2018-03-31T01:47:05.374Z,6.60
2018-03-31T01:48:08.633Z,6.70
2018-03-31T01:49:11.199Z,6.60
2018-03-31T01:50:05.703Z,6.60
2018-03-31T01:51:05.244Z,6.60
2018-03-31T01:52:05.164Z,6.60
2018-03-31T01:53:05.138Z,6.60
2018-03-31T01:54:06.201Z,6.60
2018-03-31T01:55:05.796Z,6.60
2018-03-31T01:56:05.562Z,6.70
2018-03-31T01:57:05.648Z,6.60
2018-03-31T01:58:05.247Z,6.60
2018-03-31T01:59:10.469Z,6.60
2018-03-31T02:00:05.375Z,6.60
2018-03-31T02:01:12.732Z,6.50
2018-03-31T02:02:05.375Z,6.60
2018-03-31T02:03:07.818Z,6.50
2018-03-31T02:04:05.368Z,6.50
2018-03-31T02:05:08.525Z,6.50
2018-03-31T02:06:10.972Z,6.50
2018-03-31T02:07:10.497Z,6.40
2018-03-31T02:08:08.390Z,6.50
2018-03-31T02:09:05.509Z,6.40
2018-03-31T02:10:05.140Z,6.50
2018-03-31T02:11:05.479Z,6.40
2018-03-31T02:12:08.578Z,6.40
2018-03-31T02:13:06.014Z,6.40
2018-03-31T02:14:05.654Z,6.40
2018-03-31T02:15:05.337Z,6.40
2018-03-31T02:16:05.466Z,6.40
2018-03-31T02:17:05.501Z,6.40
2018-03-31T02:18:06.120Z,6.40
2018-03-31T02:19:11.042Z,6.40
2018-03-31T02:20:05.509Z,6.40
2018-03-31T02:21:05.322Z,6.40
2018-03-31T02:22:05.449Z,6.30
2018-03-31T02:23:05.403Z,6.30
2018-03-31T02:24:05.945Z,6.30
2018-03-31T02:25:05.775Z,6.30
2018-03-31T02:26:10.361Z,6.30
2018-03-31T02:27:10.644Z,6.30
2018-03-31T02:28:06.105Z,6.30
2018-03-31T02:29:06.446Z,6.30
2018-03-31T02:30:05.331Z,6.30
2018-03-31T02:31:13.482Z,6.30
2018-03-31T02:32:10.958Z,6.30
2018-03-31T02:33:05.570Z,6.30
2018-03-31T02:34:05.197Z,6.30
2018-03-31T02:35:08.512Z,6.30
2018-03-31T02:36:08.556Z,6.30
2018-03-31T02:37:05.292Z,6.30
2018-03-31T02:38:07.718Z,6.30
2018-03-31T02:39:05.743Z,6.30
2018-03-31T02:40:06.126Z,6.30
2018-03-31T02:41:05.732Z,6.30
2018-03-31T02:42:05.156Z,6.30
2018-03-31T02:43:06.221Z,6.30
2018-03-31T02:44:08.273Z,6.30
2018-03-31T02:45:10.750Z,6.30
2018-03-31T02:46:05.201Z,6.20
2018-03-31T02:47:06.237Z,6.30
2018-03-31T02:48:06.036Z,6.30
2018-03-31T02:49:08.189Z,6.30
2018-03-31T02:50:05.620Z,6.20
2018-03-31T02:51:05.183Z,6.20
2018-03-31T02:52:05.878Z,6.20
2018-03-31T02:53:08.167Z,6.20
2018-03-31T02:54:05.301Z,6.20
2018-03-31T02:55:05.321Z,6.20
2018-03-31T02:56:11.336Z,6.20
2018-03-31T02:57:05.818Z,6.20
2018-03-31T02:58:05.847Z,6.20
2018-03-31T02:59:10.539Z,6.20
2018-03-31T03:00:08.497Z,6.20
2018-03-31T03:01:06.137Z,6.20
2018-03-31T03:02:05.784Z,6.20
2018-03-31T03:03:10.423Z,6.20
2018-03-31T03:04:05.702Z,6.20
2018-03-31T03:05:05.342Z,6.20
2018-03-31T03:06:05.868Z,6.10
2018-03-31T03:07:05.435Z,6.20
2018-03-31T03:08:08.065Z,6.10
2018-03-31T03:09:05.480Z,6.20
2018-03-31T03:10:05.443Z,6.20
2018-03-31T03:11:05.632Z,6.10
2018-03-31T03:12:10.371Z,6.10
2018-03-31T03:13:08.124Z,6.20
2018-03-31T03:14:05.560Z,6.10
2018-03-31T03:15:05.343Z,6.10
2018-03-31T03:16:07.892Z,6.10
2018-03-31T03:17:05.500Z,6.10
2018-03-31T03:18:05.690Z,6.10
2018-03-31T03:19:05.410Z,6.10
2018-03-31T03:20:08.437Z,6.20
2018-03-31T03:21:08.366Z,6.20
2018-03-31T03:22:05.771Z,6.10
2018-03-31T03:23:08.148Z,6.10
2018-03-31T03:24:05.650Z,6.20
2018-03-31T03:25:07.794Z,6.10
2018-03-31T03:26:05.397Z,6.20
2018-03-31T03:27:05.230Z,6.20
2018-03-31T03:28:05.196Z,6.10
2018-03-31T03:29:13.366Z,6.20
2018-03-31T03:30:10.875Z,6.20
2018-03-31T03:31:05.339Z,6.20
2018-03-31T03:32:07.666Z,6.20
2018-03-31T03:33:06.082Z,6.20
2018-03-31T03:34:07.953Z,6.20
2018-03-31T03:35:10.411Z,6.30
2018-03-31T03:36:08.398Z,6.20
2018-03-31T03:37:06.010Z,6.20
2018-03-31T03:38:05.868Z,6.20
2018-03-31T03:39:08.099Z,6.30
2018-03-31T03:40:08.168Z,6.30
2018-03-31T03:41:05.646Z,6.30
2018-03-31T03:42:05.242Z,6.30
2018-03-31T03:43:05.202Z,6.30
2018-03-31T03:44:05.590Z,6.30
2018-03-31T03:45:05.215Z,6.30
2018-03-31T03:46:06.053Z,6.30
2018-03-31T03:47:05.607Z,6.30
2018-03-31T03:48:08.624Z,6.30
2018-03-31T03:49:08.606Z,6.30
2018-03-31T03:50:06.396Z,6.30
2018-03-31T03:51:08.501Z,6.30
2018-03-31T03:52:05.897Z,6.30
2018-03-31T03:53:05.498Z,6.30
2018-03-31T03:54:05.211Z,6.30
2018-03-31T03:55:10.935Z,6.30
2018-03-31T03:56:11.422Z,6.40
2018-03-31T03:57:05.831Z,6.40
2018-03-31T03:58:05.497Z,6.40
2018-03-31T03:59:10.383Z,6.40
2018-03-31T04:00:05.938Z,6.30
2018-03-31T04:01:11.127Z,6.30
2018-03-31T04:02:05.527Z,6.30
2018-03-31T04:03:10.692Z,6.30
2018-03-31T04:04:05.357Z,6.30
2018-03-31T04:05:10.425Z,6.30
2018-03-31T04:06:08.386Z,6.40
2018-03-31T04:07:06.078Z,6.40
2018-03-31T04:08:05.650Z,6.30
2018-03-31T04:09:05.534Z,6.30
2018-03-31T04:10:05.434Z,6.30
2018-03-31T04:11:08.526Z,6.30
2018-03-31T04:12:05.918Z,6.30
2018-03-31T04:13:05.864Z,6.30
2018-03-31T04:14:05.462Z,6.30
2018-03-31T04:15:05.270Z,6.30
2018-03-31T04:16:05.921Z,6.30
2018-03-31T04:17:08.192Z,6.30
2018-03-31T04:18:10.813Z,6.30
2018-03-31T04:19:05.194Z,6.30
2018-03-31T04:20:10.532Z,6.30
2018-03-31T04:21:11.146Z,6.30
2018-03-31T04:22:05.429Z,6.30
2018-03-31T04:23:05.531Z,6.30
2018-03-31T04:24:05.179Z,6.20
2018-03-31T04:25:09.920Z,6.30
2018-03-31T04:26:05.515Z,6.20
2018-03-31T04:27:07.747Z,6.20
2018-03-31T04:28:05.527Z,6.20
2018-03-31T04:29:05.434Z,6.20
2018-03-31T04:30:10.752Z,6.20
2018-03-31T04:31:07.716Z,6.20
2018-03-31T04:32:07.763Z,6.20
2018-03-31T04:33:10.626Z,6.20
2018-03-31T04:34:11.118Z,6.20
2018-03-31T04:35:05.679Z,6.20
2018-03-31T04:36:05.560Z,6.20
2018-03-31T04:37:05.705Z,6.10
2018-03-31T04:38:05.688Z,6.20
2018-03-31T04:39:05.251Z,6.20
2018-03-31T04:40:05.482Z,6.20
2018-03-31T04:41:05.201Z,6.20
2018-03-31T04:42:07.772Z,6.20
2018-03-31T04:43:05.221Z,6.20
2018-03-31T04:44:05.277Z,6.20
2018-03-31T04:45:05.828Z,6.20
2018-03-31T04:46:05.356Z,6.20
2018-03-31T04:47:17.971Z,6.20
2018-03-31T04:48:05.476Z,6.20
2018-03-31T04:49:05.447Z,6.20
2018-03-31T04:50:07.824Z,6.20
2018-03-31T04:51:05.316Z,6.20
2018-03-31T04:52:05.877Z,6.20
2018-03-31T04:53:05.498Z,6.20
2018-03-31T04:54:05.389Z,6.20
2018-03-31T04:55:10.494Z,6.20
2018-03-31T04:56:08.518Z,6.20
2018-03-31T04:57:08.631Z,6.20
2018-03-31T04:58:06.121Z,6.20
2018-03-31T04:59:06.033Z,6.20
2018-03-31T05:00:05.540Z,6.20
2018-03-31T05:01:11.234Z,6.20
2018-03-31T05:02:10.741Z,6.20
2018-03-31T05:03:07.924Z,6.10
2018-03-31T05:04:05.444Z,6.20
2018-03-31T05:05:06.046Z,6.20
2018-03-31T05:06:06.022Z,6.20
2018-03-31T05:07:06.385Z,6.10
2018-03-31T05:08:11.085Z,6.10
2018-03-31T05:09:05.476Z,6.10
2018-03-31T05:10:05.609Z,6.20
2018-03-31T05:11:12.970Z,6.20
2018-03-31T05:12:05.501Z,6.10
2018-03-31T05:13:08.039Z,6.10
2018-03-31T05:14:08.048Z,6.10
2018-03-31T05:15:05.555Z,6.10
2018-03-31T05:16:05.547Z,6.10
2018-03-31T05:17:11.210Z,6.10
2018-03-31T05:18:05.790Z,6.10
2018-03-31T05:19:05.194Z,6.10
2018-03-31T05:20:08.565Z,6.10
2018-03-31T05:21:06.060Z,6.10
2018-03-31T05:22:05.892Z,6.10
2018-03-31T05:23:06.536Z,6.10
2018-03-31T05:24:06.123Z,6.20
2018-03-31T05:25:10.770Z,6.20
2018-03-31T05:26:10.258Z,6.20
2018-03-31T05:27:08.498Z,6.20
2018-03-31T05:28:05.915Z,6.20
2018-03-31T05:29:05.542Z,6.20
2018-03-31T05:30:07.892Z,6.20
2018-03-31T05:31:05.408Z,6.10
2018-03-31T05:32:07.891Z,6.20
2018-03-31T05:33:05.452Z,6.10
2018-03-31T05:34:06.268Z,6.20
2018-03-31T05:35:06.358Z,6.20
2018-03-31T05:36:05.454Z,6.20
2018-03-31T05:37:08.397Z,6.20
2018-03-31T05:38:08.434Z,6.10
2018-03-31T05:39:05.960Z,6.20
2018-03-31T05:40:05.623Z,6.20
2018-03-31T05:41:07.947Z,6.20
2018-03-31T05:42:07.949Z,6.20
2018-03-31T05:43:05.385Z,6.20
2018-03-31T05:44:06.617Z,6.20
2018-03-31T05:45:07.763Z,6.20
2018-03-31T05:46:08.664Z,6.20
2018-03-31T05:47:11.105Z,6.20
2018-03-31T05:48:10.536Z,6.20
2018-03-31T05:49:08.347Z,6.20
2018-03-31T05:50:11.073Z,6.20
2018-03-31T05:51:05.832Z,6.20
2018-03-31T05:52:08.207Z,6.20
2018-03-31T05:53:06.090Z,6.20
2018-03-31T05:54:13.936Z,6.20
2018-03-31T05:55:10.271Z,6.20
2018-03-31T05:56:05.543Z,6.20
2018-03-31T05:57:05.252Z,6.20
2018-03-31T05:58:05.826Z,6.20
2018-03-31T05:59:05.369Z,6.20
2018-03-31T06:00:05.490Z,6.20
2018-03-31T06:01:05.331Z,6.20
2018-03-31T06:02:08.099Z,6.20
2018-03-31T06:03:05.593Z,6.20
2018-03-31T06:04:06.601Z,6.20
2018-03-31T06:05:05.149Z,6.20
2018-03-31T06:06:10.962Z,6.20
2018-03-31T06:07:05.540Z,6.20
2018-03-31T06:08:06.079Z,6.30
2018-03-31T06:09:11.121Z,6.20
2018-03-31T06:10:05.498Z,6.20
2018-03-31T06:11:08.786Z,6.20
2018-03-31T06:12:05.271Z,6.20
2018-03-31T06:13:08.439Z,6.30
2018-03-31T06:14:05.951Z,6.20
2018-03-31T06:15:05.517Z,6.20
2018-03-31T06:16:10.751Z,6.20
2018-03-31T06:17:10.300Z,6.30
2018-03-31T06:18:10.884Z,6.20
2018-03-31T06:19:11.347Z,6.20
2018-03-31T06:20:05.969Z,6.20
2018-03-31T06:21:08.095Z,6.20
2018-03-31T06:22:05.696Z,6.20
2018-03-31T06:23:05.829Z,6.30
2018-03-31T06:24:08.010Z,6.30
2018-03-31T06:25:05.764Z,6.20
2018-03-31T06:26:05.894Z,6.30
2018-03-31T06:27:05.836Z,6.20
2018-03-31T06:28:08.720Z,6.30
2018-03-31T06:29:05.609Z,6.30
2018-03-31T06:30:10.430Z,6.30
2018-03-31T06:31:05.668Z,6.30
2018-03-31T06:32:05.773Z,6.20
2018-03-31T06:33:05.779Z,6.20
2018-03-31T06:34:05.431Z,6.30
2018-03-31T06:35:07.879Z,6.20
2018-03-31T06:36:05.507Z,6.30
2018-03-31T06:37:07.986Z,6.30
2018-03-31T06:38:05.384Z,6.20
2018-03-31T06:39:06.230Z,6.20
2018-03-31T06:40:08.386Z,6.30
2018-03-31T06:41:05.584Z,6.30
2018-03-31T06:42:10.737Z,6.30
2018-03-31T06:43:08.754Z,6.30
2018-03-31T06:44:05.192Z,6.30
2018-03-31T06:45:06.113Z,6.30
2018-03-31T06:46:05.708Z,6.30
2018-03-31T06:47:10.753Z,6.30
2018-03-31T06:48:05.625Z,6.30
2018-03-31T06:49:10.210Z,6.30
2018-03-31T06:50:11.442Z,6.30
2018-03-31T06:51:06.839Z,6.30
2018-03-31T06:52:05.466Z,6.30
2018-03-31T06:53:10.636Z,6.30
2018-03-31T06:54:05.440Z,6.30
2018-03-31T06:55:05.494Z,6.30
2018-03-31T06:56:05.470Z,6.30
2018-03-31T06:57:06.006Z,6.30
2018-03-31T06:58:05.839Z,6.30
2018-03-31T06:59:06.020Z,6.30
2018-03-31T07:00:05.719Z,6.30
2018-03-31T07:01:08.117Z,6.30
2018-03-31T07:02:05.596Z,6.30
2018-03-31T07:03:05.230Z,6.30
2018-03-31T07:04:05.319Z,6.20
2018-03-31T07:05:10.709Z,6.30
2018-03-31T07:06:05.444Z,6.30
2018-03-31T07:07:05.361Z,6.30
2018-03-31T07:08:08.603Z,6.30
2018-03-31T07:09:08.369Z,6.30
2018-03-31T07:10:05.945Z,6.30
2018-03-31T07:11:05.681Z,6.30
2018-03-31T07:12:15.757Z,6.30
2018-03-31T07:13:05.330Z,6.30
2018-03-31T07:14:13.576Z,6.30
2018-03-31T07:15:06.191Z,6.30
2018-03-31T07:16:05.694Z,6.30
2018-03-31T07:17:13.404Z,6.30
2018-03-31T07:18:05.944Z,6.30
2018-03-31T07:19:05.793Z,6.30
2018-03-31T07:20:07.812Z,6.30
2018-03-31T07:21:07.773Z,6.30
2018-03-31T07:22:05.472Z,6.30
2018-03-31T07:23:05.736Z,6.30
2018-03-31T07:24:05.497Z,6.40
2018-03-31T07:25:08.143Z,6.40
2018-03-31T07:26:05.715Z,6.40
2018-03-31T07:27:10.288Z,6.40
2018-03-31T07:28:05.934Z,6.40
2018-03-31T07:29:08.004Z,6.40
2018-03-31T07:30:05.689Z,6.40
2018-03-31T07:31:12.036Z,6.40
2018-03-31T07:32:13.889Z,6.40
2018-03-31T07:33:05.626Z,6.40
2018-03-31T07:34:05.503Z,6.50
2018-03-31T07:35:05.507Z,6.40
2018-03-31T07:36:05.093Z,6.50
2018-03-31T07:37:05.946Z,6.50
2018-03-31T07:38:10.722Z,6.50
2018-03-31T07:39:05.194Z,6.50
2018-03-31T07:40:05.919Z,6.50
2018-03-31T07:41:08.171Z,6.50
2018-03-31T07:42:05.692Z,6.50
2018-03-31T07:43:14.467Z,6.50
2018-03-31T07:44:06.086Z,6.50
2018-03-31T07:45:08.333Z,6.50
2018-03-31T07:46:05.787Z,6.40
2018-03-31T07:47:05.687Z,6.50
2018-03-31T07:48:05.412Z,6.60
2018-03-31T07:49:06.092Z,6.60
2018-03-31T07:50:08.348Z,6.50
2018-03-31T07:51:08.427Z,6.60
2018-03-31T07:52:05.952Z,6.60
2018-03-31T07:53:06.020Z,6.60
2018-03-31T07:54:06.000Z,6.60
2018-03-31T07:55:05.532Z,6.60
2018-03-31T07:56:08.048Z,6.60
2018-03-31T07:57:10.620Z,6.60
2018-03-31T07:58:06.011Z,6.60
2018-03-31T07:59:05.443Z,6.60
2018-03-31T08:00:05.289Z,6.60
2018-03-31T08:01:05.461Z,6.60
2018-03-31T08:02:10.356Z,6.60
2018-03-31T08:03:05.870Z,6.60
2018-03-31T08:04:13.352Z,6.60
2018-03-31T08:05:05.906Z,6.60
2018-03-31T08:06:10.606Z,6.60
2018-03-31T08:07:06.044Z,6.60
2018-03-31T08:08:08.452Z,6.70
2018-03-31T08:09:05.921Z,6.60
2018-03-31T08:10:08.085Z,6.60
2018-03-31T08:11:05.606Z,6.60
2018-03-31T08:12:05.403Z,6.70
2018-03-31T08:13:06.015Z,6.60
2018-03-31T08:14:05.583Z,6.70
2018-03-31T08:15:10.401Z,6.60
2018-03-31T08:16:08.443Z,6.70
2018-03-31T08:17:08.547Z,6.70
2018-03-31T08:18:06.083Z,6.70
2018-03-31T08:19:10.778Z,6.70
2018-03-31T08:20:05.366Z,6.70
2018-03-31T08:21:07.190Z,6.60
2018-03-31T08:22:05.868Z,6.70
2018-03-31T08:23:08.309Z,6.60
2018-03-31T08:24:08.345Z,6.60
2018-03-31T08:25:05.784Z,6.60
2018-03-31T08:26:05.658Z,6.70
2018-03-31T08:27:08.093Z,6.70
2018-03-31T08:28:05.661Z,6.60
2018-03-31T08:29:06.213Z,6.70
2018-03-31T08:30:05.795Z,6.70
2018-03-31T08:31:05.458Z,6.70
2018-03-31T08:32:06.120Z,6.70
2018-03-31T08:33:05.901Z,6.70
2018-03-31T08:34:07.692Z,6.70
2018-03-31T08:35:10.226Z,6.70
2018-03-31T08:36:05.625Z,6.70
2018-03-31T08:37:05.670Z,6.70
2018-03-31T08:38:08.184Z,6.70
2018-03-31T08:39:10.878Z,6.60
2018-03-31T08:40:10.374Z,6.70
2018-03-31T08:41:08.463Z,6.70
2018-03-31T08:42:08.500Z,6.70
2018-03-31T08:43:05.254Z,6.60
2018-03-31T08:44:05.476Z,6.70
2018-03-31T08:45:05.327Z,6.60
2018-03-31T08:46:05.406Z,6.70
2018-03-31T08:47:05.494Z,6.60
2018-03-31T08:48:05.764Z,6.60
2018-03-31T08:49:05.754Z,6.70
2018-03-31T08:50:08.022Z,6.70
2018-03-31T08:51:13.163Z,6.70
2018-03-31T08:52:05.703Z,6.70
2018-03-31T08:53:05.688Z,6.70
2018-03-31T08:54:05.373Z,6.80
2018-03-31T08:55:05.501Z,6.70
2018-03-31T08:56:05.298Z,6.70
2018-03-31T08:57:05.423Z,6.70
2018-03-31T08:58:05.947Z,6.80
2018-03-31T08:59:10.745Z,6.80
2018-03-31T09:00:05.150Z,6.80
2018-03-31T09:01:05.368Z,6.80
2018-03-31T09:02:05.717Z,6.80
2018-03-31T09:03:08.443Z,6.80
2018-03-31T09:04:05.943Z,6.80
2018-03-31T09:05:10.537Z,6.90
2018-03-31T09:06:06.218Z,6.80
2018-03-31T09:07:05.830Z,6.90
2018-03-31T09:08:10.640Z,6.80
2018-03-31T09:09:06.072Z,6.80
2018-03-31T09:10:08.161Z,6.80
2018-03-31T09:11:05.535Z,6.80
2018-03-31T09:12:10.197Z,6.80
2018-03-31T09:13:08.222Z,6.80
2018-03-31T09:14:08.243Z,6.80
2018-03-31T09:15:08.374Z,6.90
2018-03-31T09:16:05.912Z,6.90
2018-03-31T09:17:05.783Z,6.80
2018-03-31T09:18:05.773Z,6.90
2018-03-31T09:19:05.933Z,6.90
2018-03-31T09:20:05.585Z,6.90
2018-03-31T09:21:05.335Z,7.00
2018-03-31T09:22:05.545Z,7.00
2018-03-31T09:23:05.478Z,7.00
2018-03-31T09:24:05.808Z,7.00
2018-03-31T09:25:08.301Z,7.20
2018-03-31T09:26:06.005Z,7.10
2018-03-31T09:27:05.729Z,7.20
2018-03-31T09:28:10.346Z,7.20
2018-03-31T09:29:05.786Z,7.40
2018-03-31T09:30:05.781Z,7.40
2018-03-31T09:31:05.483Z,7.50
2018-03-31T09:32:07.859Z,7.60
2018-03-31T09:33:05.339Z,7.60
2018-03-31T09:34:05.586Z,7.70
2018-03-31T09:35:08.593Z,7.80
2018-03-31T09:36:08.674Z,7.80
2018-03-31T09:37:05.219Z,7.80
2018-03-31T09:38:05.519Z,7.90
2018-03-31T09:39:05.592Z,7.90
2018-03-31T09:40:05.221Z,7.90
2018-03-31T09:41:08.131Z,7.90
2018-03-31T09:42:05.542Z,7.90
2018-03-31T09:43:05.318Z,7.90
2018-03-31T09:44:10.909Z,7.90
2018-03-31T09:45:07.859Z,7.90
2018-03-31T09:46:15.472Z,8.00
2018-03-31T09:47:05.950Z,7.90
2018-03-31T09:48:05.885Z,8.00
2018-03-31T09:49:05.584Z,8.00
2018-03-31T09:50:05.740Z,8.00
2018-03-31T09:51:10.469Z,8.10
2018-03-31T09:52:10.856Z,8.10
2018-03-31T09:53:07.949Z,8.10
2018-03-31T09:54:11.193Z,8.10
2018-03-31T09:55:08.405Z,8.10
2018-03-31T09:56:05.848Z,8.10
2018-03-31T09:57:10.712Z,8.10
2018-03-31T09:58:08.594Z,8.10
2018-03-31T09:59:08.370Z,8.10
2018-03-31T10:00:05.813Z,8.10
2018-03-31T10:01:05.365Z,8.10
2018-03-31T10:02:05.979Z,8.10
2018-03-31T10:03:05.566Z,8.00
2018-03-31T10:04:05.442Z,8.00
2018-03-31T10:05:07.790Z,7.90
2018-03-31T10:06:05.215Z,8.00
2018-03-31T10:07:10.399Z,7.90
2018-03-31T10:08:06.118Z,7.90
2018-03-31T10:09:05.784Z,7.90
2018-03-31T10:10:05.558Z,7.90
2018-03-31T10:11:05.301Z,7.80
2018-03-31T10:12:05.339Z,7.80
2018-03-31T10:13:14.150Z,7.80
2018-03-31T10:14:06.131Z,7.80
2018-03-31T10:15:05.717Z,7.80
2018-03-31T10:16:05.876Z,7.80
2018-03-31T10:17:05.550Z,7.70
2018-03-31T10:18:05.177Z,7.80
2018-03-31T10:19:05.198Z,7.70
2018-03-31T10:20:05.219Z,7.70
2018-03-31T10:21:08.035Z,7.70
2018-03-31T10:22:05.571Z,7.70
2018-03-31T10:23:10.551Z,7.70
2018-03-31T10:24:06.109Z,7.60
2018-03-31T10:25:10.959Z,7.70
2018-03-31T10:26:05.423Z,7.70
2018-03-31T10:27:05.492Z,7.70
2018-03-31T10:28:05.688Z,7.80
2018-03-31T10:29:05.810Z,7.70
2018-03-31T10:30:10.410Z,7.80
2018-03-31T10:31:08.417Z,7.90
2018-03-31T10:32:05.893Z,7.80
2018-03-31T10:33:05.526Z,7.90
2018-03-31T10:34:05.685Z,8.00
2018-03-31T10:35:05.243Z,8.00
2018-03-31T10:36:10.343Z,8.10
2018-03-31T10:37:05.883Z,8.10
2018-03-31T10:38:05.785Z,8.20
2018-03-31T10:39:05.846Z,8.20
2018-03-31T10:40:10.769Z,8.40
2018-03-31T10:41:05.683Z,8.40
2018-03-31T10:42:05.343Z,8.40
2018-03-31T10:43:05.344Z,8.50
2018-03-31T10:44:10.355Z,8.50
2018-03-31T10:45:05.759Z,8.50
2018-03-31T10:46:08.314Z,8.50
2018-03-31T10:47:05.717Z,8.50
2018-03-31T10:48:05.712Z,8.50
2018-03-31T10:49:06.162Z,8.50
2018-03-31T10:50:08.357Z,8.50
2018-03-31T10:51:05.993Z,8.50
2018-03-31T10:52:05.544Z,8.50
2018-03-31T10:53:05.643Z,8.50
2018-03-31T10:54:05.760Z,8.50
2018-03-31T10:55:08.136Z,8.40
2018-03-31T10:56:08.168Z,8.40
2018-03-31T10:57:05.468Z,8.40
2018-03-31T10:58:05.859Z,8.40
2018-03-31T10:59:05.461Z,8.30
2018-03-31T11:00:11.158Z,8.30
2018-03-31T11:01:08.969Z,8.30
2018-03-31T11:02:05.279Z,8.30
2018-03-31T11:03:05.892Z,8.30
2018-03-31T11:04:05.706Z,8.30
2018-03-31T11:05:10.472Z,8.30
2018-03-31T11:06:05.957Z,8.30
2018-03-31T11:07:10.933Z,8.20
2018-03-31T11:08:10.401Z,8.20
2018-03-31T11:09:11.038Z,8.30
2018-03-31T11:10:10.640Z,8.30
2018-03-31T11:11:05.382Z,8.30
2018-03-31T11:12:07.696Z,8.30
2018-03-31T11:13:08.003Z,8.30
2018-03-31T11:14:05.238Z,8.30
2018-03-31T11:15:05.755Z,8.20
2018-03-31T11:16:10.357Z,8.20
2018-03-31T11:17:05.801Z,8.30
2018-03-31T11:18:05.732Z,8.30
2018-03-31T11:19:06.035Z,8.30
2018-03-31T11:20:05.866Z,8.30
2018-03-31T11:21:05.456Z,8.30
2018-03-31T11:22:15.303Z,8.30
2018-03-31T11:23:05.712Z,8.30
2018-03-31T11:24:11.173Z,8.30
2018-03-31T11:25:05.793Z,8.30
2018-03-31T11:26:06.436Z,8.40
2018-03-31T11:27:10.428Z,8.40
2018-03-31T11:28:06.116Z,8.40
2018-03-31T11:29:08.148Z,8.50
2018-03-31T11:30:08.106Z,8.50
2018-03-31T11:31:10.624Z,8.40
2018-03-31T11:32:08.107Z,8.50
2018-03-31T11:33:05.692Z,8.50
2018-03-31T11:34:06.160Z,8.50
2018-03-31T11:35:06.123Z,8.50
2018-03-31T11:36:05.675Z,8.50
2018-03-31T11:37:10.838Z,8.50
2018-03-31T11:38:05.382Z,8.50
2018-03-31T11:39:05.256Z,8.50
2018-03-31T11:40:05.912Z,8.50
2018-03-31T11:41:05.512Z,8.50
2018-03-31T11:42:05.767Z,8.40
2018-03-31T11:43:05.624Z,8.40
2018-03-31T11:44:05.948Z,8.40
2018-03-31T11:45:08.071Z,8.30
2018-03-31T11:46:08.069Z,8.30
2018-03-31T11:47:07.906Z,8.30
2018-03-31T11:48:13.074Z,8.30
2018-03-31T11:49:10.553Z,8.20
2018-03-31T11:50:08.665Z,8.30
2018-03-31T11:51:08.623Z,8.20
2018-03-31T11:52:11.148Z,8.20
2018-03-31T11:53:10.817Z,8.20
2018-03-31T11:54:15.395Z,8.10
2018-03-31T11:55:08.454Z,8.20
2018-03-31T11:56:11.070Z,8.10
2018-03-31T11:57:10.662Z,8.10
2018-03-31T11:58:06.159Z,8.10
2018-03-31T11:59:05.812Z,8.10
2018-03-31T12:00:08.208Z,8.10
2018-03-31T12:01:05.708Z,8.00
2018-03-31T12:02:06.130Z,8.00
2018-03-31T12:03:05.878Z,8.00
2018-03-31T12:04:08.361Z,8.00
2018-03-31T12:05:05.808Z,8.00
2018-03-31T12:06:05.735Z,8.00
2018-03-31T12:07:10.825Z,8.00
2018-03-31T12:08:10.509Z,8.00
2018-03-31T12:09:11.084Z,8.00
2018-03-31T12:10:08.091Z,8.10
2018-03-31T12:11:08.110Z,8.10
2018-03-31T12:12:05.698Z,8.20
2018-03-31T12:13:05.710Z,8.20
2018-03-31T12:14:10.467Z,8.30
2018-03-31T12:15:10.987Z,8.20
2018-03-31T12:16:05.449Z,8.30
2018-03-31T12:17:06.120Z,8.40
2018-03-31T12:18:08.484Z,8.40
2018-03-31T12:19:05.910Z,8.40
2018-03-31T12:20:05.917Z,8.40
2018-03-31T12:21:10.559Z,8.50
2018-03-31T12:22:11.020Z,8.40
2018-03-31T12:23:10.516Z,8.50
2018-03-31T12:24:05.989Z,8.50
2018-03-31T12:25:05.822Z,8.50
2018-03-31T12:26:05.840Z,8.50
2018-03-31T12:27:05.999Z,8.50
2018-03-31T12:28:05.840Z,8.60
2018-03-31T12:29:05.425Z,8.60
2018-03-31T12:30:05.707Z,8.60
2018-03-31T12:31:05.516Z,8.60
2018-03-31T12:32:08.122Z,8.60
2018-03-31T12:33:10.777Z,8.60
2018-03-31T12:34:05.210Z,8.60
2018-03-31T12:35:05.204Z,8.70
2018-03-31T12:36:11.160Z,8.60
2018-03-31T12:37:05.654Z,8.60
2018-03-31T12:38:10.770Z,8.60
2018-03-31T12:39:08.352Z,8.60
2018-03-31T12:40:06.135Z,8.60
2018-03-31T12:41:05.738Z,8.70
2018-03-31T12:42:05.611Z,8.60
2018-03-31T12:43:10.846Z,8.70
2018-03-31T12:44:10.331Z,8.70
2018-03-31T12:45:05.955Z,8.70
2018-03-31T12:46:08.170Z,8.70
2018-03-31T12:47:05.781Z,8.70
2018-03-31T12:48:05.698Z,8.70
2018-03-31T12:49:05.706Z,8.70
2018-03-31T12:50:10.866Z,8.60
2018-03-31T12:51:10.467Z,8.60
2018-03-31T12:52:06.234Z,8.60
2018-03-31T12:53:06.245Z,8.60
2018-03-31T12:54:05.541Z,8.60
2018-03-31T12:55:05.937Z,8.60
2018-03-31T12:56:05.918Z,8.60
2018-03-31T12:57:08.496Z,8.60
2018-03-31T12:58:06.174Z,8.60
2018-03-31T12:59:05.882Z,8.60
2018-03-31T13:00:05.414Z,8.60
2018-03-31T13:01:05.656Z,8.60
2018-03-31T13:02:05.149Z,8.50
2018-03-31T13:03:10.403Z,8.60
2018-03-31T13:04:11.280Z,8.60
2018-03-31T13:05:05.439Z,8.60
2018-03-31T13:06:06.090Z,8.60
2018-03-31T13:07:11.110Z,8.60
2018-03-31T13:08:05.667Z,8.60
2018-03-31T13:09:08.331Z,8.60
2018-03-31T13:10:08.303Z,8.60
2018-03-31T13:11:05.778Z,8.60
2018-03-31T13:12:18.221Z,8.60
2018-03-31T13:13:05.776Z,8.60
2018-03-31T13:14:10.515Z,8.60
2018-03-31T13:15:05.967Z,8.60
2018-03-31T13:16:06.196Z,8.50
2018-03-31T13:17:05.924Z,8.50
2018-03-31T13:18:05.577Z,8.50